createdAt,value
2018-05-06T00:00:28.795Z,79.70
2018-05-06T00:01:27.590Z,79.41
2018-05-06T00:02:27.272Z,79.13
2018-05-06T00:03:27.153Z,79.13
2018-05-06T00:04:47.397Z,79.22
2018-05-06T00:06:08.861Z,79.41
2018-05-06T00:07:09.027Z,79.41
2018-05-06T00:08:08.917Z,79.51
2018-05-06T00:09:30.600Z,79.51
2018-05-06T00:10:30.173Z,79.70
2018-05-06T00:11:30.066Z,79.89
2018-05-06T00:12:29.769Z,79.80
2018-05-06T00:13:30.827Z,79.89
2018-05-06T00:14:30.574Z,79.99
2018-05-06T00:15:30.678Z,80.27
2018-05-06T00:16:30.482Z,80.65
2018-05-06T00:17:30.344Z,80.65
2018-05-06T00:18:30.504Z,80.36
2018-05-06T00:19:30.223Z,80.55
2018-05-06T00:20:30.309Z,80.65
2018-05-06T00:21:30.304Z,80.75
2018-05-06T00:22:30.828Z,80.65
2018-05-06T00:23:31.361Z,80.46
2018-05-06T00:24:30.121Z,80.65
2018-05-06T00:25:31.103Z,80.55
2018-05-06T00:26:30.039Z,80.46
2018-05-06T00:27:31.019Z,80.55
2018-05-06T00:28:30.113Z,80.84
2018-05-06T00:29:30.132Z,81.23
2018-05-06T00:30:30.106Z,81.32
2018-05-06T00:31:29.630Z,81.51
2018-05-06T00:32:30.586Z,81.70
2018-05-06T00:33:30.403Z,81.70
2018-05-06T00:34:30.340Z,81.79
2018-05-06T00:35:29.988Z,81.70
2018-05-06T00:36:29.705Z,81.89
2018-05-06T00:37:30.715Z,81.89
2018-05-06T00:38:30.454Z,82.18
2018-05-06T00:39:29.973Z,82.23
2018-05-06T00:40:30.190Z,82.23
2018-05-06T00:41:29.753Z,82.23
2018-05-06T00:42:30.400Z,82.51
2018-05-06T00:43:30.412Z,82.70
2018-05-06T00:44:30.374Z,82.90
2018-05-06T00:45:30.041Z,82.99
2018-05-06T00:46:29.856Z,83.09
2018-05-06T00:47:51.386Z,83.18
2018-05-06T00:48:51.883Z,83.28
2018-05-06T00:49:51.645Z,83.28
2018-05-06T00:50:51.382Z,83.37
2018-05-06T00:51:52.245Z,83.37
2018-05-06T00:52:51.830Z,83.28
2018-05-06T00:53:51.940Z,83.47
2018-05-06T00:54:51.993Z,83.28
2018-05-06T00:55:51.877Z,83.09
2018-05-06T00:56:51.426Z,82.70
2018-05-06T00:57:52.189Z,82.51
2018-05-06T00:58:51.681Z,82.70
2018-05-06T00:59:51.487Z,82.80
2018-05-06T01:00:51.323Z,82.70
2018-05-06T01:02:12.410Z,82.61
2018-05-06T01:03:12.998Z,82.14
2018-05-06T01:04:12.620Z,82.14
2018-05-06T01:05:13.898Z,82.14
2018-05-06T01:06:32.734Z,82.32
2018-05-06T01:07:33.865Z,82.51
2018-05-06T01:08:34.028Z,82.90
2018-05-06T01:09:56.494Z,83.28
2018-05-06T01:10:57.222Z,83.65
2018-05-06T01:12:17.294Z,84.42
2018-05-06T01:13:18.596Z,84.61
2018-05-06T01:14:18.430Z,84.99
2018-05-06T01:15:18.310Z,85.18
2018-05-06T01:16:17.893Z,85.47
2018-05-06T01:17:17.799Z,85.52
2018-05-06T01:18:38.637Z,85.80
2018-05-06T01:19:38.741Z,85.99
2018-05-06T01:20:38.142Z,85.99
2018-05-06T01:21:39.182Z,86.09
2018-05-06T01:22:38.666Z,86.18
2018-05-06T01:23:38.850Z,86.18
2018-05-06T01:24:58.591Z,86.18
2018-05-06T01:25:59.748Z,86.18
2018-05-06T01:26:59.595Z,86.28
2018-05-06T01:27:59.465Z,86.38
2018-05-06T01:28:59.314Z,86.18
2018-05-06T01:29:59.250Z,86.28
2018-05-06T01:30:58.951Z,85.99
2018-05-06T01:31:59.889Z,85.99
2018-05-06T01:32:59.662Z,86.09
2018-05-06T01:33:59.807Z,85.90
2018-05-06T01:34:59.726Z,85.80
2018-05-06T01:35:59.350Z,85.90
2018-05-06T01:36:58.801Z,85.99
2018-05-06T01:37:59.849Z,86.09
2018-05-06T01:38:59.915Z,86.09
2018-05-06T01:39:59.656Z,86.09
2018-05-06T01:40:59.513Z,86.38
2018-05-06T01:41:59.216Z,86.18
2018-05-06T01:42:59.158Z,86.28
2018-05-06T01:44:19.450Z,86.38
2018-05-06T01:45:40.590Z,86.66
2018-05-06T01:47:01.421Z,86.76
2018-05-06T01:48:02.280Z,87.04
2018-05-06T01:49:02.044Z,87.32
2018-05-06T01:50:01.942Z,87.42
2018-05-06T01:51:02.050Z,87.71
2018-05-06T01:52:01.999Z,87.90
2018-05-06T01:53:01.522Z,87.95
2018-05-06T01:54:22.329Z,88.13
2018-05-06T01:55:23.252Z,88.23
2018-05-06T01:56:23.142Z,88.33
2018-05-06T01:58:03.649Z,88.52
2018-05-06T01:59:04.441Z,88.52
2018-05-06T02:00:04.052Z,88.90
2018-05-06T02:01:03.780Z,88.90
2018-05-06T02:02:04.532Z,88.90
2018-05-06T02:03:04.154Z,89.00
2018-05-06T02:04:24.358Z,89.00
2018-05-06T02:05:45.627Z,88.90
2018-05-06T02:06:46.236Z,88.90
2018-05-06T02:07:45.858Z,89.09
2018-05-06T02:08:45.441Z,89.09
2018-05-06T02:09:46.103Z,89.18
2018-05-06T02:10:46.072Z,89.09
2018-05-06T02:11:45.752Z,89.28
2018-05-06T02:12:46.623Z,89.28
2018-05-06T02:13:46.397Z,89.28
2018-05-06T02:14:46.350Z,89.37
2018-05-06T02:15:46.287Z,89.37
2018-05-06T02:16:46.186Z,89.37
2018-05-06T02:18:06.430Z,89.47
2018-05-06T02:19:06.926Z,89.56
2018-05-06T02:20:06.417Z,89.52
2018-05-06T02:22:08.210Z,89.61
2018-05-06T02:23:29.407Z,89.80
2018-05-06T02:24:30.373Z,89.80
2018-05-06T02:25:30.947Z,89.90
2018-05-06T02:26:29.511Z,90.00
2018-05-06T02:27:29.173Z,90.00
2018-05-06T02:28:29.658Z,90.00
2018-05-06T02:29:29.455Z,90.09
2018-05-06T02:30:30.349Z,90.09
2018-05-06T02:31:30.281Z,90.19
2018-05-06T02:32:29.826Z,90.28
2018-05-06T02:33:49.835Z,90.37
2018-05-06T02:34:50.719Z,90.47
2018-05-06T02:35:50.149Z,90.47
2018-05-06T02:36:50.927Z,90.56
2018-05-06T02:37:50.784Z,90.66
2018-05-06T02:38:50.164Z,90.66
2018-05-06T02:39:50.672Z,90.75
2018-05-06T02:40:50.095Z,90.85
2018-05-06T02:41:51.167Z,90.85
2018-05-06T02:42:50.653Z,90.94
2018-05-06T02:43:50.677Z,90.94
2018-05-06T02:44:50.609Z,90.94
2018-05-06T02:45:50.095Z,91.04
2018-05-06T02:46:50.624Z,91.04
2018-05-06T02:47:50.864Z,91.13
2018-05-06T02:48:50.481Z,91.23
2018-05-06T02:49:50.482Z,91.23
2018-05-06T02:50:50.107Z,91.33
2018-05-06T02:51:50.566Z,91.42
2018-05-06T02:52:49.957Z,91.52
2018-05-06T02:53:50.433Z,91.61
2018-05-06T02:54:50.340Z,91.71
2018-05-06T02:56:51.182Z,91.42
2018-05-06T02:57:51.687Z,91.52
2018-05-06T02:58:51.240Z,91.52
2018-05-06T02:59:52.096Z,91.52
2018-05-06T03:00:51.639Z,91.52
2018-05-06T03:01:51.131Z,91.71
2018-05-06T03:02:51.536Z,91.71
2018-05-06T03:03:51.134Z,91.80
2018-05-06T03:04:51.630Z,91.80
2018-05-06T03:05:51.252Z,91.99
2018-05-06T03:06:51.743Z,91.99
2018-05-06T03:07:51.472Z,92.08
2018-05-06T03:09:11.801Z,92.23
2018-05-06T03:10:12.661Z,92.23
2018-05-06T03:11:12.668Z,92.32
2018-05-06T03:12:12.599Z,92.42
2018-05-06T03:13:12.506Z,92.51
2018-05-06T03:14:33.551Z,92.61
2018-05-06T03:15:33.318Z,92.61
2018-05-06T03:16:33.484Z,92.61
2018-05-06T03:17:33.476Z,92.61
2018-05-06T03:18:33.358Z,92.61
2018-05-06T03:19:33.476Z,92.71
2018-05-06T03:20:33.353Z,92.71
2018-05-06T03:21:33.092Z,92.80
2018-05-06T03:22:33.673Z,92.94
2018-05-06T03:23:33.887Z,92.94
2018-05-06T03:24:34.325Z,92.66
2018-05-06T03:25:33.489Z,92.66
2018-05-06T03:26:33.637Z,92.56
2018-05-06T03:27:33.369Z,92.56
2018-05-06T03:28:33.580Z,92.56
2018-05-06T03:29:54.417Z,92.37
2018-05-06T03:30:55.450Z,92.37
2018-05-06T03:31:54.873Z,92.37
2018-05-06T03:32:54.473Z,92.37
2018-05-06T03:34:15.588Z,92.37
2018-05-06T03:35:15.979Z,92.27
2018-05-06T03:36:15.954Z,92.37
2018-05-06T03:37:15.670Z,92.18
2018-05-06T03:38:16.255Z,92.08
2018-05-06T03:39:16.225Z,92.18
2018-05-06T03:40:15.701Z,92.18
2018-05-06T03:41:16.361Z,92.08
2018-05-06T03:42:16.336Z,92.18
2018-05-06T03:43:15.901Z,92.18
2018-05-06T03:44:16.932Z,91.89
2018-05-06T03:45:15.698Z,91.89
2018-05-06T03:46:16.748Z,91.89
2018-05-06T03:47:16.265Z,91.80
2018-05-06T03:48:15.794Z,91.71
2018-05-06T03:49:16.507Z,91.71
2018-05-06T03:50:16.040Z,91.80
2018-05-06T03:51:15.712Z,91.71
2018-05-06T03:52:16.364Z,91.80
2018-05-06T03:53:56.860Z,91.80
2018-05-06T03:54:57.382Z,91.89
2018-05-06T03:56:07.041Z,91.99
2018-05-06T03:56:57.857Z,91.89
2018-05-06T03:57:57.420Z,91.99
2018-05-06T03:58:56.946Z,92.08
2018-05-06T03:59:57.642Z,92.08
2018-05-06T04:00:57.754Z,91.99
2018-05-06T04:01:57.759Z,91.80
2018-05-06T04:02:57.353Z,91.80
2018-05-06T04:03:57.081Z,91.80
2018-05-06T04:05:20.994Z,91.89
2018-05-06T04:06:20.578Z,92.08
2018-05-06T04:07:21.120Z,92.18
2018-05-06T04:08:41.191Z,92.18
2018-05-06T04:09:42.440Z,92.18
2018-05-06T04:10:42.271Z,92.08
2018-05-06T04:11:41.906Z,92.18
2018-05-06T04:12:58.196Z,92.27
2018-05-06T04:13:59.104Z,92.27
2018-05-06T04:14:58.730Z,92.27
2018-05-06T04:15:58.712Z,92.37
2018-05-06T04:16:58.265Z,92.46
2018-05-06T04:18:19.621Z,92.42
2018-05-06T04:19:20.609Z,92.56
2018-05-06T04:20:20.201Z,92.56
2018-05-06T04:21:20.008Z,92.66
2018-05-06T04:22:19.806Z,92.56
2018-05-06T04:23:20.540Z,92.75
2018-05-06T04:24:20.568Z,92.75
2018-05-06T04:25:20.179Z,92.66
2018-05-06T04:26:19.902Z,92.66
2018-05-06T04:27:20.906Z,92.66
2018-05-06T04:28:20.868Z,92.46
2018-05-06T04:29:19.630Z,92.46
2018-05-06T04:30:20.617Z,92.46
2018-05-06T04:31:20.434Z,92.18
2018-05-06T04:32:20.558Z,92.18
2018-05-06T04:33:20.566Z,92.08
2018-05-06T04:34:20.601Z,91.89
2018-05-06T04:35:41.511Z,91.89
2018-05-06T04:36:41.361Z,91.56
2018-05-06T04:37:42.456Z,91.66
2018-05-06T04:38:41.672Z,91.18
2018-05-06T04:39:41.370Z,90.80
2018-05-06T04:40:42.015Z,90.42
2018-05-06T04:41:41.697Z,90.23
2018-05-06T04:42:41.363Z,90.14
2018-05-06T04:43:42.069Z,90.04
2018-05-06T04:44:42.007Z,89.99
2018-05-06T04:45:41.862Z,89.42
2018-05-06T04:46:42.174Z,89.14
2018-05-06T04:47:41.872Z,88.94
2018-05-06T04:48:42.061Z,89.14
2018-05-06T04:49:41.733Z,89.23
2018-05-06T04:51:22.524Z,89.42
2018-05-06T04:52:22.803Z,89.51
2018-05-06T04:53:22.909Z,89.42
2018-05-06T04:54:43.407Z,89.32
2018-05-06T04:55:44.294Z,89.14
2018-05-06T04:56:44.874Z,89.04
2018-05-06T04:57:43.474Z,88.94
2018-05-06T04:58:44.196Z,88.75
2018-05-06T04:59:43.780Z,88.94
2018-05-06T05:00:45.310Z,89.14
2018-05-06T05:01:44.354Z,89.32
2018-05-06T05:02:44.564Z,89.32
2018-05-06T05:04:04.682Z,89.51
2018-05-06T05:05:05.853Z,89.61
2018-05-06T05:06:05.656Z,89.70
2018-05-06T05:07:06.732Z,89.61
2018-05-06T05:08:05.332Z,89.61
2018-05-06T05:09:05.258Z,89.51
2018-05-06T05:10:04.855Z,89.61
2018-05-06T05:11:05.945Z,89.14
2018-05-06T05:12:05.060Z,88.75
2018-05-06T05:13:04.755Z,88.66
2018-05-06T05:14:05.870Z,88.85
2018-05-06T05:15:05.788Z,88.94
2018-05-06T05:16:05.445Z,88.94
2018-05-06T05:17:05.485Z,88.94
2018-05-06T05:18:05.403Z,88.89
2018-05-06T05:19:05.608Z,88.70
2018-05-06T05:20:05.254Z,88.60
2018-05-06T05:21:05.057Z,88.42
2018-05-06T05:22:04.853Z,88.23
2018-05-06T05:23:06.025Z,88.04
2018-05-06T05:24:05.168Z,87.75
2018-05-06T05:25:05.288Z,87.51
2018-05-06T05:26:05.015Z,86.32
2018-05-06T05:27:05.097Z,84.92
2018-05-06T05:28:05.177Z,82.78
2018-05-06T05:29:05.180Z,81.77
2018-05-06T05:30:05.322Z,80.85
2018-05-06T05:31:05.471Z,79.85
2018-05-06T05:32:05.564Z,78.12
2018-05-06T05:33:05.589Z,77.21
2018-05-06T05:34:05.842Z,75.62
2018-05-06T05:35:05.655Z,74.13
2018-05-06T05:36:05.521Z,72.41
2018-05-06T05:37:05.204Z,72.25
2018-05-06T05:38:04.975Z,70.72
2018-05-06T05:39:05.066Z,69.60
2018-05-06T05:40:04.753Z,68.68
2018-05-06T05:41:05.898Z,66.96
2018-05-06T05:42:46.745Z,65.75
2018-05-06T05:43:46.810Z,65.26
2018-05-06T05:44:46.595Z,64.34
2018-05-06T05:45:47.182Z,63.19
2018-05-06T05:46:47.233Z,62.90
2018-05-06T05:47:46.925Z,62.52
2018-05-06T05:48:46.621Z,62.16
2018-05-06T05:49:47.289Z,61.78
2018-05-06T05:50:47.424Z,61.52
2018-05-06T05:52:08.682Z,60.95
2018-05-06T05:53:09.044Z,60.60
2018-05-06T05:54:09.017Z,60.31
2018-05-06T05:55:09.226Z,60.02
2018-05-06T05:56:29.575Z,59.38
2018-05-06T05:57:30.874Z,59.28
2018-05-06T05:58:50.576Z,59.09
2018-05-06T05:59:51.373Z,58.45
2018-05-06T06:00:51.429Z,57.87
2018-05-06T06:01:51.596Z,57.68
2018-05-06T06:02:51.436Z,57.48
2018-05-06T06:03:51.220Z,57.84
2018-05-06T06:04:51.888Z,57.65
2018-05-06T06:05:50.670Z,57.36
2018-05-06T06:06:51.604Z,57.84
2018-05-06T06:08:11.751Z,58.25
2018-05-06T06:09:12.942Z,57.39
2018-05-06T06:10:12.159Z,57.51
2018-05-06T06:11:13.019Z,57.60
2018-05-06T06:12:12.195Z,56.96
2018-05-06T06:13:12.321Z,56.29
2018-05-06T06:14:33.757Z,56.20
2018-05-06T06:15:34.056Z,56.29
2018-05-06T06:16:34.028Z,56.67
2018-05-06T06:17:35.143Z,55.71
2018-05-06T06:18:34.535Z,55.71
2018-05-06T06:19:33.943Z,56.20
2018-05-06T06:20:34.233Z,55.65
2018-05-06T06:21:34.969Z,55.00
2018-05-06T06:22:34.483Z,53.45
2018-05-06T06:23:33.812Z,53.94
2018-05-06T06:24:33.631Z,53.87
2018-05-06T06:25:33.623Z,52.81
2018-05-06T06:26:33.719Z,52.20
2018-05-06T06:27:33.720Z,52.47
2018-05-06T06:28:33.856Z,53.23
2018-05-06T06:29:54.660Z,53.45
2018-05-06T06:30:55.915Z,53.07
2018-05-06T06:31:54.762Z,52.61
2018-05-06T06:32:56.102Z,51.94
2018-05-06T06:33:55.341Z,51.26
2018-05-06T06:34:55.275Z,50.98
2018-05-06T06:35:55.459Z,50.49
2018-05-06T06:36:55.570Z,50.88
2018-05-06T06:37:55.814Z,50.30
2018-05-06T06:38:55.260Z,50.42
2018-05-06T06:39:55.144Z,49.84
2018-05-06T06:41:16.293Z,49.29
2018-05-06T06:42:57.613Z,48.90
2018-05-06T06:43:57.521Z,48.81
2018-05-06T06:44:57.630Z,48.61
2018-05-06T06:46:17.934Z,49.39
2018-05-06T06:47:18.768Z,49.10
2018-05-06T06:48:20.550Z,49.19
2018-05-06T06:49:18.799Z,48.23
2018-05-06T06:50:18.642Z,48.33
2018-05-06T06:51:39.420Z,49.10
2018-05-06T06:52:40.273Z,48.97
2018-05-06T06:53:40.160Z,49.00
2018-05-06T06:54:39.883Z,48.11
2018-05-06T06:55:39.760Z,48.01
2018-05-06T06:57:00.440Z,48.42
2018-05-06T06:58:21.636Z,48.52
2018-05-06T06:59:21.537Z,48.25
2018-05-06T07:00:21.786Z,47.70
2018-05-06T07:01:21.681Z,47.24
2018-05-06T07:03:02.966Z,46.66
2018-05-06T07:04:04.934Z,46.27
2018-05-06T07:05:03.860Z,46.37
2018-05-06T07:06:04.174Z,46.66
2018-05-06T07:07:04.767Z,45.98
2018-05-06T07:08:03.378Z,46.25
2018-05-06T07:09:03.387Z,46.85
2018-05-06T07:10:03.702Z,46.78
2018-05-06T07:11:03.807Z,46.32
2018-05-06T07:12:03.698Z,45.45
2018-05-06T07:13:03.812Z,45.45
2018-05-06T07:14:03.767Z,45.25
2018-05-06T07:15:04.137Z,45.45
2018-05-06T07:16:03.032Z,45.04
2018-05-06T07:17:05.275Z,45.69
2018-05-06T07:18:03.400Z,45.52
2018-05-06T07:19:03.662Z,45.33
2018-05-06T07:20:03.789Z,45.42
2018-05-06T07:21:04.057Z,46.51
2018-05-06T07:22:03.427Z,45.37
2018-05-06T07:23:23.722Z,44.81
2018-05-06T07:24:24.628Z,44.81
2018-05-06T07:25:24.465Z,44.84
2018-05-06T07:26:24.190Z,45.05
2018-05-06T07:27:44.741Z,42.85
2018-05-06T07:28:45.976Z,43.33
2018-05-06T07:29:44.896Z,42.75
2018-05-06T07:30:45.162Z,42.63
2018-05-06T07:31:44.960Z,43.19
2018-05-06T07:32:45.029Z,43.12
2018-05-06T07:33:44.890Z,42.72
2018-05-06T07:34:46.138Z,42.75
2018-05-06T07:36:27.155Z,44.10
2018-05-06T07:37:27.392Z,42.67
2018-05-06T07:38:27.746Z,42.48
2018-05-06T07:39:28.000Z,41.99
2018-05-06T07:40:27.892Z,41.12
2018-05-06T07:41:26.984Z,41.99
2018-05-06T07:42:27.181Z,42.26
2018-05-06T07:43:27.480Z,42.75
2018-05-06T07:44:28.292Z,43.06
2018-05-06T07:45:27.355Z,42.67
2018-05-06T07:46:27.763Z,41.99
2018-05-06T07:47:27.892Z,41.80
2018-05-06T07:48:48.853Z,42.46
2018-05-06T07:49:48.863Z,42.29
2018-05-06T07:50:49.203Z,42.30
2018-05-06T07:51:49.007Z,42.29
2018-05-06T07:52:49.305Z,42.29
2018-05-06T07:53:49.127Z,42.79
2018-05-06T07:54:48.910Z,41.63
2018-05-06T07:55:49.225Z,40.95
2018-05-06T07:56:49.142Z,41.89
2018-05-06T07:57:49.491Z,42.38
2018-05-06T07:58:49.431Z,41.82
2018-05-06T07:59:49.423Z,41.16
2018-05-06T08:00:49.222Z,41.36
2018-05-06T08:02:10.054Z,41.26
2018-05-06T08:03:11.488Z,40.97
2018-05-06T08:04:10.794Z,41.05
2018-05-06T08:05:10.718Z,41.92
2018-05-06T08:06:32.596Z,41.84
2018-05-06T08:07:32.450Z,42.18
2018-05-06T08:08:32.651Z,41.61
2018-05-06T08:09:32.403Z,40.23
2018-05-06T08:10:32.684Z,39.92
2018-05-06T08:11:32.447Z,40.19
2018-05-06T08:12:32.617Z,41.33
2018-05-06T08:13:31.638Z,42.21
2018-05-06T08:14:32.965Z,41.26
2018-05-06T08:15:31.800Z,41.64
2018-05-06T08:16:32.171Z,41.74
2018-05-06T08:17:32.534Z,41.94
2018-05-06T08:18:32.392Z,39.92
2018-05-06T08:20:35.529Z,40.13
2018-05-06T08:21:35.600Z,39.43
2018-05-06T08:22:36.047Z,40.11
2018-05-06T08:23:57.233Z,39.45
2018-05-06T08:24:57.004Z,38.48
2018-05-06T08:26:18.458Z,38.98
2018-05-06T08:27:19.249Z,39.88
2018-05-06T08:28:19.207Z,39.31
2018-05-06T08:29:19.150Z,37.29
2018-05-06T08:30:19.318Z,36.94
2018-05-06T08:31:19.501Z,37.23
2018-05-06T08:32:19.662Z,37.15
2018-05-06T08:33:18.624Z,37.04
2018-05-06T08:34:18.491Z,37.62
2018-05-06T08:35:40.786Z,37.21
2018-05-06T08:36:41.060Z,37.37
2018-05-06T08:37:41.017Z,38.15
2018-05-06T08:38:41.418Z,38.75
2018-05-06T08:39:41.205Z,37.68
2018-05-06T08:40:41.601Z,37.21
2018-05-06T08:41:40.795Z,36.53
2018-05-06T08:42:41.022Z,36.53
2018-05-06T08:43:41.280Z,36.92
2018-05-06T08:44:41.090Z,37.95
2018-05-06T08:45:41.087Z,37.84
2018-05-06T08:46:41.386Z,38.21
2018-05-06T08:47:40.251Z,39.49
2018-05-06T08:48:41.222Z,39.12
2018-05-06T08:49:40.726Z,38.07
2018-05-06T08:50:40.647Z,37.29
2018-05-06T08:51:40.831Z,37.70
2018-05-06T08:52:40.871Z,36.61
2018-05-06T08:53:41.742Z,37.77
2018-05-06T08:54:41.633Z,37.97
2018-05-06T08:55:41.113Z,36.55
2018-05-06T08:56:42.081Z,37.43
2018-05-06T08:57:42.035Z,37.52
2018-05-06T08:58:40.935Z,37.62
2018-05-06T08:59:41.255Z,37.24
2018-05-06T09:00:40.740Z,37.72
2018-05-06T09:01:41.065Z,37.14
2018-05-06T09:02:41.678Z,37.74
2018-05-06T09:03:40.951Z,37.04
2018-05-06T09:04:41.272Z,37.62
2018-05-06T09:05:41.202Z,37.35
2018-05-06T09:06:42.568Z,37.66
2018-05-06T09:08:22.812Z,37.08
2018-05-06T09:09:23.923Z,36.98
2018-05-06T09:10:24.193Z,37.06
2018-05-06T09:11:23.400Z,38.32
2018-05-06T09:12:23.291Z,38.32
2018-05-06T09:13:23.389Z,37.35
2018-05-06T09:14:23.339Z,37.54
2018-05-06T09:15:23.877Z,36.77
2018-05-06T09:16:23.538Z,36.30
2018-05-06T09:17:45.514Z,37.00
2018-05-06T09:18:45.718Z,36.84
2018-05-06T09:19:48.518Z,35.78
2018-05-06T09:20:45.528Z,35.39
2018-05-06T09:22:05.918Z,35.28
2018-05-06T09:23:06.817Z,36.53
2018-05-06T09:24:28.463Z,36.53
2018-05-06T09:25:28.475Z,36.82
2018-05-06T09:26:28.653Z,36.82
2018-05-06T09:27:49.044Z,36.86
2018-05-06T09:29:30.581Z,35.59
2018-05-06T09:30:31.779Z,35.28
2018-05-06T09:31:32.150Z,35.36
2018-05-06T09:32:31.271Z,35.86
2018-05-06T09:33:32.089Z,35.78
2018-05-06T09:34:31.367Z,35.57
2018-05-06T09:35:32.214Z,35.38
2018-05-06T09:36:31.121Z,35.69
2018-05-06T09:37:31.359Z,34.52
2018-05-06T09:38:33.063Z,34.63
2018-05-06T09:39:31.635Z,34.75
2018-05-06T09:40:31.067Z,34.94
2018-05-06T09:41:51.865Z,34.34
2018-05-06T09:42:52.220Z,33.83
2018-05-06T09:43:52.443Z,34.84
2018-05-06T09:44:52.817Z,34.14
2018-05-06T09:45:53.020Z,34.53
2018-05-06T09:46:52.420Z,34.14
2018-05-06T09:47:52.779Z,34.45
2018-05-06T09:48:52.773Z,34.28
2018-05-06T09:49:52.670Z,33.61
2018-05-06T09:50:52.942Z,33.02
2018-05-06T09:51:52.507Z,33.50
2018-05-06T09:52:52.517Z,34.09
2018-05-06T09:53:52.805Z,34.00
2018-05-06T09:54:52.674Z,33.34
2018-05-06T09:55:53.345Z,33.26
2018-05-06T09:56:52.276Z,33.17
2018-05-06T09:57:52.818Z,32.07
2018-05-06T09:58:52.736Z,32.66
2018-05-06T09:59:52.905Z,32.86
2018-05-06T10:00:52.660Z,33.05
2018-05-06T10:01:52.915Z,32.94
2018-05-06T10:02:51.967Z,33.15
2018-05-06T10:03:51.960Z,32.76
2018-05-06T10:04:51.789Z,32.86
2018-05-06T10:05:52.167Z,33.64
2018-05-06T10:06:52.279Z,33.82
2018-05-06T10:07:52.775Z,34.23
2018-05-06T10:08:51.859Z,33.33
2018-05-06T10:09:52.932Z,33.41
2018-05-06T10:10:52.751Z,33.70
2018-05-06T10:12:12.978Z,33.72
2018-05-06T10:13:13.883Z,33.34
2018-05-06T10:14:13.295Z,33.84
2018-05-06T10:15:13.173Z,33.75
2018-05-06T10:16:13.100Z,32.70
2018-05-06T10:17:33.864Z,32.20
2018-05-06T10:18:34.937Z,32.81
2018-05-06T10:19:33.888Z,32.58
2018-05-06T10:20:34.009Z,33.85
2018-05-06T10:21:34.233Z,32.46
2018-05-06T10:22:34.256Z,32.58
2018-05-06T10:23:56.973Z,32.70
2018-05-06T10:24:56.939Z,32.81
2018-05-06T10:25:57.301Z,33.28
2018-05-06T10:26:57.627Z,32.99
2018-05-06T10:27:59.093Z,33.00
2018-05-06T10:28:58.149Z,32.25
2018-05-06T10:29:57.439Z,32.17
2018-05-06T10:31:18.211Z,31.50
2018-05-06T10:32:41.021Z,31.12
2018-05-06T10:33:41.236Z,30.81
2018-05-06T10:34:40.116Z,31.48
2018-05-06T10:35:40.117Z,31.76
2018-05-06T10:36:40.183Z,32.06
2018-05-06T10:37:40.733Z,31.17
2018-05-06T10:38:40.724Z,31.73
2018-05-06T10:39:40.984Z,32.12
2018-05-06T10:40:41.176Z,32.51
2018-05-06T10:41:41.053Z,32.61
2018-05-06T10:42:41.409Z,32.61
2018-05-06T10:43:41.343Z,32.73
2018-05-06T10:44:42.096Z,32.25
2018-05-06T10:45:40.901Z,32.25
2018-05-06T10:46:41.201Z,31.34
2018-05-06T10:47:40.403Z,31.13
2018-05-06T10:48:40.785Z,31.77
2018-05-06T10:49:41.169Z,32.81
2018-05-06T10:50:40.687Z,33.41
2018-05-06T10:51:40.707Z,33.92
2018-05-06T10:52:40.771Z,32.73
2018-05-06T10:53:40.667Z,33.02
2018-05-06T10:55:45.091Z,33.23
2018-05-06T10:56:44.989Z,32.65
2018-05-06T10:57:45.824Z,32.45
2018-05-06T10:59:07.366Z,33.33
2018-05-06T11:00:07.795Z,32.56
2018-05-06T11:01:07.174Z,32.78
2018-05-06T11:02:07.418Z,32.19
2018-05-06T11:03:07.664Z,31.78
2018-05-06T11:04:07.970Z,31.88
2018-05-06T11:05:28.042Z,32.09
2018-05-06T11:06:28.946Z,31.14
2018-05-06T11:07:28.791Z,31.14
2018-05-06T11:08:50.331Z,31.41
2018-05-06T11:09:50.471Z,32.50
2018-05-06T11:10:49.375Z,31.93
2018-05-06T11:11:50.600Z,31.34
2018-05-06T11:13:31.076Z,31.44
2018-05-06T11:14:51.989Z,31.52
2018-05-06T11:15:52.075Z,32.51
2018-05-06T11:16:52.044Z,31.76
2018-05-06T11:17:52.950Z,31.20
2018-05-06T11:18:52.370Z,30.80
2018-05-06T11:19:52.451Z,32.14
2018-05-06T11:20:52.775Z,33.69
2018-05-06T11:21:52.224Z,33.89
2018-05-06T11:22:52.396Z,34.31
2018-05-06T11:23:52.225Z,35.00
2018-05-06T11:24:52.419Z,34.25
2018-05-06T11:25:52.554Z,33.56
2018-05-06T11:26:52.752Z,32.68
2018-05-06T11:27:51.597Z,33.34
2018-05-06T11:28:52.181Z,33.04
2018-05-06T11:29:52.555Z,33.23
2018-05-06T11:30:53.921Z,34.10
2018-05-06T11:31:52.875Z,34.30
2018-05-06T11:32:51.751Z,34.78
2018-05-06T11:33:51.610Z,35.17
2018-05-06T11:34:52.460Z,33.89
2018-05-06T11:35:52.489Z,33.41
2018-05-06T11:36:52.334Z,34.90
2018-05-06T11:37:52.920Z,33.33
2018-05-06T11:38:51.786Z,32.35
2018-05-06T11:39:51.744Z,33.43
2018-05-06T11:40:52.017Z,33.41
2018-05-06T11:41:57.498Z,33.02
2018-05-06T11:42:52.204Z,33.61
2018-05-06T11:43:52.324Z,35.89
2018-05-06T11:45:21.816Z,33.48
2018-05-06T11:46:25.257Z,33.00
2018-05-06T11:47:15.154Z,32.31
2018-05-06T11:48:15.499Z,31.53
2018-05-06T11:49:14.871Z,33.12
2018-05-06T11:50:15.368Z,31.53
2018-05-06T11:51:14.799Z,31.81
2018-05-06T11:52:14.899Z,32.98
2018-05-06T11:53:15.252Z,32.20
2018-05-06T11:54:14.309Z,33.29
2018-05-06T11:55:36.495Z,32.41
2018-05-06T11:56:37.922Z,32.10
2018-05-06T11:57:37.493Z,32.35
2018-05-06T11:58:36.660Z,32.45
2018-05-06T12:00:18.870Z,32.74
2018-05-06T12:01:19.881Z,32.94
2018-05-06T12:02:39.920Z,32.66
2018-05-06T12:03:40.486Z,31.87
2018-05-06T12:04:40.893Z,32.04
2018-05-06T12:05:40.364Z,32.90
2018-05-06T12:06:40.471Z,33.12
2018-05-06T12:07:41.191Z,33.70
2018-05-06T12:08:41.286Z,33.02
2018-05-06T12:09:41.692Z,33.10
2018-05-06T12:11:02.940Z,33.50
2018-05-06T12:12:02.929Z,33.38
2018-05-06T12:13:03.384Z,33.29
2018-05-06T12:14:03.593Z,32.81
2018-05-06T12:15:03.922Z,33.70
2018-05-06T12:16:03.902Z,32.45
2018-05-06T12:17:03.521Z,33.43
2018-05-06T12:18:03.816Z,32.34
2018-05-06T12:19:03.442Z,33.12
2018-05-06T12:20:04.018Z,32.92
2018-05-06T12:21:24.874Z,32.70
2018-05-06T12:22:25.194Z,33.09
2018-05-06T12:23:26.538Z,33.59
2018-05-06T12:24:25.560Z,33.20
2018-05-06T12:25:24.979Z,32.53
2018-05-06T12:26:47.370Z,32.76
2018-05-06T12:27:47.950Z,31.96
2018-05-06T12:28:47.407Z,31.84
2018-05-06T12:29:47.740Z,32.43
2018-05-06T12:32:33.125Z,33.04
2018-05-06T12:33:33.595Z,32.15
2018-05-06T12:34:34.093Z,32.74
2018-05-06T12:35:33.767Z,32.43
2018-05-06T12:36:33.550Z,32.43
2018-05-06T12:37:33.617Z,31.54
2018-05-06T12:38:34.082Z,31.62
2018-05-06T12:39:55.577Z,32.01
2018-05-06T12:40:55.115Z,32.03
2018-05-06T12:42:17.607Z,32.56
2018-05-06T12:43:18.178Z,32.46
2018-05-06T12:44:18.393Z,32.97
2018-05-06T12:45:18.420Z,32.01
2018-05-06T12:46:18.148Z,32.19
2018-05-06T12:47:18.601Z,32.60
2018-05-06T12:48:17.801Z,32.71
2018-05-06T12:49:38.904Z,32.12
2018-05-06T12:50:39.018Z,31.91
2018-05-06T12:51:39.909Z,31.78
2018-05-06T12:52:39.306Z,32.75
2018-05-06T12:53:39.461Z,33.34
2018-05-06T12:54:40.427Z,33.25
2018-05-06T12:55:39.967Z,33.46
2018-05-06T12:56:39.799Z,33.07
2018-05-06T12:58:00.717Z,34.21
2018-05-06T12:59:01.895Z,33.79
2018-05-06T13:00:23.113Z,34.36
2018-05-06T13:01:23.800Z,34.77
2018-05-06T13:02:23.305Z,34.77
2018-05-06T13:03:23.368Z,34.78
2018-05-06T13:04:23.528Z,34.41
2018-05-06T13:05:24.726Z,34.23
2018-05-06T13:06:24.291Z,34.52
2018-05-06T13:07:23.624Z,33.43
2018-05-06T13:08:23.487Z,34.09
2018-05-06T13:09:24.278Z,34.58
2018-05-06T13:10:23.752Z,35.35
2018-05-06T13:11:22.863Z,37.22
2018-05-06T13:12:23.314Z,35.27
2018-05-06T13:13:23.205Z,35.84
2018-05-06T13:14:23.423Z,36.63
2018-05-06T13:16:02.880Z,36.07
2018-05-06T13:17:02.808Z,34.70
2018-05-06T13:18:24.216Z,34.89
2018-05-06T13:19:24.155Z,34.80
2018-05-06T13:20:45.500Z,35.56
2018-05-06T13:21:45.758Z,36.36
2018-05-06T13:22:46.803Z,35.46
2018-05-06T13:23:45.998Z,35.75
2018-05-06T13:24:45.855Z,35.58
2018-05-06T13:26:06.720Z,34.50
2018-05-06T13:27:08.349Z,35.09
2018-05-06T13:28:49.203Z,35.77
2018-05-06T13:30:30.849Z,34.80
2018-05-06T13:31:30.876Z,34.99
2018-05-06T13:32:30.785Z,34.39
2018-05-06T13:33:30.788Z,35.25
2018-05-06T13:34:30.685Z,35.56
2018-05-06T13:35:30.798Z,34.78